Time;durP1;ratioP1;P1;durP2;ratioP2;P2;SDS_P1;SDS_P2;PMS_P1;PMS_P2;Temp;Humidity;BMP_temperature;BMP_pressure;BME280_temperature;BME280_humidity;BME280_pressure;Samples;Min_cycle;Max_cycle;Signal;HPM_P1;HPM_P2
2022/10/03 00:00:02;;;;;;;1.60;1.50;;;12.20;99.90;;;;;;5217371;28;20210;-77
2022/10/03 00:02:58;;;;;;;1.13;1.08;;;12.20;99.90;;;;;;5231461;28;20032;-77
2022/10/03 00:05:50;;;;;;;2.70;1.38;;;12.20;99.90;;;;;;5208664;28;20052;-78
2022/10/03 00:08:46;;;;;;;2.47;1.13;;;12.20;99.90;;;;;;5216117;28;20239;-77
2022/10/03 00:11:26;;;;;;;1.50;1.40;;;12.20;99.90;;;;;;5217167;28;20040;-78
2022/10/03 00:14:03;;;;;;;2.03;1.20;;;12.30;99.90;;;;;;5215889;28;20483;-76
2022/10/03 00:16:43;;;;;;;2.33;1.30;;;12.30;99.90;;;;;;5201068;28;20031;-76
2022/10/03 00:19:45;;;;;;;1.10;1.10;;;12.30;99.90;;;;;;5216360;28;20033;-75
2022/10/03 00:23:01;;;;;;;1.58;1.48;;;12.30;99.90;;;;;;5210138;28;20033;-76
2022/10/03 00:25:38;;;;;;;1.30;1.20;;;12.30;99.90;;;;;;5112844;28;20027;-75
2022/10/03 00:28:38;;;;;;;2.53;1.27;;;12.30;99.90;;;;;;5112560;29;20410;-75
2022/10/03 00:31:16;;;;;;;1.55;1.38;;;12.30;99.90;;;;;;5097077;29;20355;-75
2022/10/03 00:37:15;;;;;;;1.80;1.27;;;12.20;99.90;;;;;;5209527;28;20029;-76
2022/10/03 00:40:25;;;;;;;3.25;1.90;;;12.30;99.90;;;;;;5212896;28;20037;-77
2022/10/03 00:43:07;;;;;;;1.63;1.52;;;12.30;99.90;;;;;;5201381;28;20045;-77
2022/10/03 00:45:54;;;;;;;2.60;1.45;;;12.30;99.90;;;;;;5218236;28;20048;-76
2022/10/03 00:48:28;;;;;;;3.15;1.70;;;12.10;99.90;;;;;;5201793;28;20136;-77
2022/10/03 00:51:18;;;;;;;2.05;1.40;;;12.20;99.90;;;;;;5218230;28;20033;-76
2022/10/03 00:53:51;;;;;;;2.40;1.55;;;12.20;99.90;;;;;;5217503;28;20024;-77
2022/10/03 00:56:31;;;;;;;5.43;2.03;;;12.20;99.90;;;;;;5200349;28;20029;-77
2022/10/03 00:59:18;;;;;;;2.33;1.70;;;12.30;99.90;;;;;;5210813;28;20064;-76
2022/10/03 01:01:52;;;;;;;2.88;1.48;;;12.50;99.90;;;;;;5203306;28;20184;-75
2022/10/03 01:04:39;;;;;;;2.90;1.95;;;12.60;99.90;;;;;;5204964;28;20021;-75
2022/10/03 01:07:37;;;;;;;2.15;1.70;;;12.60;99.90;;;;;;5219470;28;20044;-75
2022/10/03 01:10:21;;;;;;;3.47;1.50;;;12.60;99.90;;;;;;5230129;28;20047;-76
2022/10/03 01:13:31;;;;;;;3.25;1.83;;;12.60;99.90;;;;;;5201836;28;20055;-77
2022/10/03 01:16:20;;;;;;;5.70;1.58;;;12.50;99.90;;;;;;5218468;28;20029;-77
2022/10/03 01:19:18;;;;;;;1.90;1.70;;;12.40;99.90;;;;;;5201645;28;20034;-76
2022/10/03 01:22:27;;;;;;;2.53;1.58;;;12.40;99.90;;;;;;5234393;28;20028;-77
2022/10/03 01:25:11;;;;;;;2.10;1.90;;;12.40;99.90;;;;;;5214753;28;20035;-77
2022/10/03 01:31:15;;;;;;;1.92;1.80;;;12.40;99.90;;;;;;5178487;28;20030;-76
2022/10/03 01:34:20;;;;;;;2.72;1.40;;;12.30;99.90;;;;;;5226686;28;20036;-76
2022/10/03 01:37:04;;;;;;;2.80;1.98;;;12.40;99.90;;;;;;5218518;28;20467;-76
2022/10/03 01:39:44;;;;;;;2.15;1.85;;;12.40;99.90;;;;;;5234822;28;20031;-76
2022/10/03 01:42:26;;;;;;;2.47;1.70;;;12.30;99.90;;;;;;5218855;28;20037;-76
2022/10/03 01:45:05;;;;;;;2.20;1.55;;;12.30;99.90;;;;;;5218347;28;20051;-76
2022/10/03 01:47:51;;;;;;;2.20;1.60;;;12.20;99.90;;;;;;5212141;28;20029;-75
2022/10/03 01:50:33;;;;;;;3.30;1.73;;;12.20;99.90;;;;;;5180695;28;20021;-75
2022/10/03 01:53:42;;;;;;;2.20;2.00;;;12.20;99.90;;;;;;5214998;28;20039;-75
2022/10/03 01:56:36;;;;;;;3.70;2.53;;;12.10;99.90;;;;;;5215247;28;20047;-75
2022/10/03 01:59:31;;;;;;;1.98;1.80;;;12.10;99.90;;;;;;5201116;28;20041;-77
2022/10/03 02:02:20;;;;;;;2.60;1.42;;;12.10;99.90;;;;;;5211974;28;20486;-77
2022/10/03 02:04:57;;;;;;;1.77;1.55;;;12.10;99.90;;;;;;5230677;28;20047;-77
2022/10/03 02:07:42;;;;;;;2.58;1.88;;;12.00;99.90;;;;;;5223589;28;20028;-77
2022/10/03 02:10:32;;;;;;;;;;;12.00;99.90;;;;;;5213917;28;20041;-77
2022/10/03 02:13:03;;;;;;;3.67;1.95;;;12.00;99.90;;;;;;5228878;28;19919;-76
2022/10/03 02:15:43;;;;;;;3.35;2.00;;;12.00;99.90;;;;;;5228758;28;20035;-77
2022/10/03 02:18:45;;;;;;;5.80;1.88;;;12.00;99.90;;;;;;5224810;28;20039;-77
2022/10/03 02:21:22;;;;;;;3.97;2.50;;;12.00;99.90;;;;;;5220500;28;20023;-77
2022/10/03 02:24:05;;;;;;;3.33;2.17;;;12.00;99.90;;;;;;5203396;28;20059;-75
2022/10/03 02:26:46;;;;;;;3.28;2.35;;;11.90;99.90;;;;;;5204696;28;20036;-75
2022/10/03 02:29:39;;;;;;;4.35;2.03;;;11.90;99.90;;;;;;5223474;28;20559;-76
2022/10/03 02:32:36;;;;;;;4.07;2.53;;;12.00;99.90;;;;;;5187247;28;20035;-77
2022/10/03 02:35:54;;;;;;;4.35;2.50;;;12.20;99.90;;;;;;5241554;28;20032;-75
2022/10/03 02:38:31;;;;;;;4.30;2.58;;;12.20;99.90;;;;;;5126057;28;20042;-76
2022/10/03 02:41:31;;;;;;;3.75;2.60;;;12.20;99.90;;;;;;5200461;28;20029;-75
2022/10/03 02:44:33;;;;;;;3.42;3.13;;;12.20;99.90;;;;;;5187025;28;20043;-76
2022/10/03 02:47:19;;;;;;;3.15;2.88;;;12.30;99.90;;;;;;5222206;28;20290;-76
2022/10/03 02:50:00;;;;;;;2.45;2.25;;;12.20;99.90;;;;;;5220004;28;20033;-76
2022/10/03 02:52:54;;;;;;;2.78;2.28;;;12.10;99.90;;;;;;5217703;28;20033;-75
2022/10/03 02:56:02;;;;;;;3.30;2.72;;;12.10;99.90;;;;;;5221514;28;20009;-77
2022/10/03 02:58:58;;;;;;;3.03;2.70;;;12.00;99.90;;;;;;5229045;28;20017;-77
2022/10/03 03:02:11;;;;;;;5.85;2.65;;;11.90;99.90;;;;;;5179599;28;20076;-76
2022/10/03 03:04:51;;;;;;;4.88;2.63;;;12.00;99.90;;;;;;5103679;28;20085;-75
2022/10/03 03:07:58;;;;;;;5.68;3.45;;;12.00;99.90;;;;;;5098304;29;20027;-75
2022/10/03 03:10:38;;;;;;;3.05;2.63;;;12.10;99.90;;;;;;5109558;28;20056;-75
2022/10/03 03:13:34;;;;;;;2.95;2.45;;;12.00;99.90;;;;;;5136448;28;20038;-75
2022/10/03 03:16:44;;;;;;;3.50;2.60;;;11.90;99.90;;;;;;5117564;28;20481;-75
2022/10/03 03:19:48;;;;;;;4.57;2.70;;;11.90;99.90;;;;;;5113746;28;20344;-75
2022/10/03 03:22:47;;;;;;;4.85;3.00;;;12.00;99.90;;;;;;5116946;28;20041;-75
2022/10/03 03:25:21;;;;;;;3.05;2.75;;;12.10;99.90;;;;;;5115878;28;20161;-76
2022/10/03 03:28:10;;;;;;;4.53;2.60;;;12.20;99.90;;;;;;5137038;28;20362;-76
2022/10/03 03:31:06;;;;;;;2.85;2.40;;;12.20;99.90;;;;;;5135999;28;20039;-75
2022/10/03 03:33:56;;;;;;;2.85;2.17;;;12.20;99.90;;;;;;5135489;28;20038;-76
2022/10/03 03:36:40;;;;;;;4.35;2.38;;;12.00;99.90;;;;;;5135577;28;20271;-77
2022/10/03 03:39:29;;;;;;;3.03;2.23;;;12.10;99.90;;;;;;5121261;28;20526;-77
2022/10/03 03:42:17;;;;;;;3.92;2.20;;;12.00;99.90;;;;;;5175998;28;20594;-76
2022/10/03 03:45:04;;;;;;;1.95;1.85;;;12.00;99.90;;;;;;5214774;28;20518;-75
2022/10/03 03:47:54;;;;;;;2.15;1.95;;;12.00;99.90;;;;;;5215312;28;20473;-76
2022/10/03 03:50:47;;;;;;;4.07;2.08;;;12.00;99.90;;;;;;5227220;28;20033;-75
2022/10/03 03:53:47;;;;;;;4.50;2.00;;;12.10;99.90;;;;;;5220065;28;20030;-75
2022/10/03 03:57:00;;;;;;;6.45;2.20;;;11.90;99.90;;;;;;5234742;28;20041;-75
2022/10/03 03:59:43;;;;;;;3.10;2.25;;;11.90;99.90;;;;;;5187848;28;20045;-77
2022/10/03 04:02:51;;;;;;;2.33;2.15;;;11.80;99.90;;;;;;5187482;28;20037;-77
2022/10/03 04:05:31;;;;;;;2.75;2.55;;;11.90;99.90;;;;;;5208981;28;20465;-75
2022/10/03 04:08:20;;;;;;;3.30;2.25;;;11.90;99.90;;;;;;5223296;28;20348;-76
2022/10/03 04:10:57;;;;;;;2.55;2.25;;;11.90;99.90;;;;;;5232894;28;20029;-76
2022/10/03 04:13:59;;;;;;;4.18;2.40;;;12.00;99.90;;;;;;5229946;28;20435;-76
2022/10/03 04:19:53;;;;;;;2.45;2.25;;;11.90;99.90;;;;;;5216128;28;20040;-76
2022/10/03 04:22:51;;;;;;;3.10;2.38;;;11.90;99.90;;;;;;5216290;28;20032;-76
2022/10/03 04:25:30;;;;;;;2.92;2.17;;;11.90;99.90;;;;;;5198523;28;20043;-76
2022/10/03 04:28:25;;;;;;;3.40;2.40;;;11.90;99.90;;;;;;5216795;28;20017;-76
2022/10/03 04:31:24;;;;;;;5.32;2.78;;;11.70;99.90;;;;;;5198919;28;20033;-76
2022/10/03 04:34:19;;;;;;;4.35;2.17;;;11.70;99.90;;;;;;5204275;28;20044;-77
2022/10/03 04:37:10;;;;;;;3.47;1.90;;;11.70;99.90;;;;;;5215465;28;20045;-77
2022/10/03 04:39:46;;;;;;;2.70;1.77;;;11.90;99.90;;;;;;5203577;28;20035;-75
2022/10/03 04:43:04;;;;;;;3.67;2.22;;;12.00;99.90;;;;;;5219684;28;20515;-76
2022/10/03 04:46:11;;;;;;;2.95;1.73;;;12.10;99.90;;;;;;5236671;28;20032;-76
2022/10/03 04:48:50;;;;;;;4.90;1.98;;;12.10;99.90;;;;;;5226997;28;20422;-75
2022/10/03 04:51:52;;;;;;;2.38;2.15;;;12.00;99.90;;;;;;5204586;28;20035;-75
2022/10/03 04:54:42;;;;;;;3.53;2.17;;;11.90;99.90;;;;;;5190920;28;20021;-75
2022/10/03 04:57:24;;;;;;;2.40;2.20;;;11.80;99.90;;;;;;5207147;28;20311;-75
2022/10/03 05:00:27;;;;;;;2.28;2.10;;;11.80;99.90;;;;;;5208833;28;20023;-75
2022/10/03 05:03:36;;;;;;;2.95;1.58;;;11.70;99.90;;;;;;5194773;28;20036;-76
2022/10/03 05:06:30;;;;;;;3.17;1.95;;;11.70;99.90;;;;;;5101310;28;20141;-75
2022/10/03 05:09:34;;;;;;;2.78;1.75;;;11.60;99.90;;;;;;5083186;29;20047;-75
2022/10/03 05:12:21;;;;;;;4.15;1.92;;;11.50;99.90;;;;;;5111985;28;20488;-75
2022/10/03 05:15:15;;;;;;;2.55;1.50;;;11.60;99.90;;;;;;5188856;28;20037;-74
2022/10/03 05:18:24;;;;;;;2.65;1.98;;;11.70;99.90;;;;;;5211909;28;20045;-75
2022/10/03 05:21:19;;;;;;;2.63;1.88;;;11.70;99.90;;;;;;5215397;28;20062;-75
2022/10/03 05:24:14;;;;;;;3.42;1.90;;;11.80;99.90;;;;;;5156764;28;20033;-74
2022/10/03 05:27:00;;;;;;;3.03;2.38;;;11.80;99.90;;;;;;5198153;28;20250;-75
2022/10/03 05:30:00;;;;;;;4.30;1.95;;;11.80;99.90;;;;;;5218476;28;20029;-75
2022/10/03 05:32:46;;;;;;;5.22;2.10;;;11.80;99.90;;;;;;5217754;28;20033;-74
2022/10/03 05:35:34;;;;;;;3.28;2.30;;;11.90;99.90;;;;;;5216550;28;20032;-74
2022/10/03 05:38:23;;;;;;;4.28;2.38;;;11.90;99.90;;;;;;5217718;28;20037;-75
2022/10/03 05:41:00;;;;;;;1.98;1.88;;;11.90;99.90;;;;;;5200583;28;20035;-73
2022/10/03 05:44:00;;;;;;;2.20;2.00;;;11.90;99.90;;;;;;5198316;28;20067;-75
2022/10/03 05:46:53;;;;;;;6.10;2.40;;;11.90;99.90;;;;;;5222675;28;20529;-75
2022/10/03 05:50:04;;;;;;;4.35;1.85;;;12.00;99.90;;;;;;5219479;28;20455;-75
2022/10/03 05:52:54;;;;;;;3.30;1.70;;;12.10;99.90;;;;;;5202607;28;20029;-75
2022/10/03 05:55:51;;;;;;;3.13;2.10;;;12.10;99.90;;;;;;5199455;28;20031;-75
2022/10/03 05:59:13;;;;;;;2.83;1.55;;;12.00;99.90;;;;;;5218109;28;20467;-75
2022/10/03 06:02:05;;;;;;;4.53;2.13;;;12.00;99.90;;;;;;5220599;28;20063;-75
2022/10/03 06:05:19;;;;;;;5.22;2.30;;;12.10;99.90;;;;;;5211113;28;20501;-75
2022/10/03 06:07:50;;;;;;;2.80;2.03;;;12.10;99.90;;;;;;5186309;28;20035;-77
2022/10/03 06:10:49;;;;;;;2.10;1.90;;;12.10;99.90;;;;;;5203751;28;20061;-76
2022/10/03 06:13:58;;;;;;;2.17;1.48;;;12.20;99.90;;;;;;5198985;28;20477;-76
2022/10/03 06:16:54;;;;;;;1.92;1.50;;;12.40;99.90;;;;;;5216789;28;20055;-76
2022/10/03 06:19:57;;;;;;;1.75;1.52;;;12.50;99.90;;;;;;5215449;28;20028;-74
2022/10/03 06:23:13;;;;;;;5.35;1.40;;;12.60;99.90;;;;;;5218605;28;20445;-74
2022/10/03 06:25:53;;;;;;;3.50;1.83;;;12.80;99.90;;;;;;5204026;28;20021;-74
2022/10/03 06:28:37;;;;;;;3.70;1.23;;;12.80;99.90;;;;;;5197999;28;20062;-75
2022/10/03 06:31:22;;;;;;;3.38;1.50;;;12.80;99.90;;;;;;5215273;28;20648;-76
2022/10/03 06:34:08;;;;;;;2.25;1.40;;;12.80;99.90;;;;;;5213313;28;20572;-76
2022/10/03 06:36:59;;;;;;;2.60;1.73;;;12.80;99.90;;;;;;5213874;28;20029;-74
2022/10/03 06:40:17;;;;;;;2.58;1.65;;;12.70;99.90;;;;;;5213724;28;20025;-74
2022/10/03 06:42:57;;;;;;;2.25;1.48;;;12.70;99.90;;;;;;5203497;28;20032;-75
2022/10/03 06:45:47;;;;;;;2.67;1.65;;;12.70;99.90;;;;;;5216711;28;20028;-73
2022/10/03 06:48:47;;;;;;;3.33;1.50;;;12.90;99.90;;;;;;5198193;28;20298;-74
2022/10/03 06:51:36;;;;;;;5.07;1.60;;;12.90;99.90;;;;;;5215042;28;20131;-75
2022/10/03 06:54:38;;;;;;;3.88;1.35;;;12.90;99.90;;;;;;5214351;28;20038;-76
2022/10/03 06:57:34;;;;;;;3.83;1.70;;;13.00;99.90;;;;;;5213324;28;20036;-74
2022/10/03 07:00:31;;;;;;;1.55;1.45;;;13.00;99.90;;;;;;5217811;28;20029;-75
2022/10/03 07:03:24;;;;;;;1.77;1.30;;;13.10;99.90;;;;;;5216767;28;20020;-75
2022/10/03 07:06:13;;;;;;;4.80;1.27;;;13.10;99.90;;;;;;5190502;28;20041;-75
2022/10/03 07:09:16;;;;;;;2.55;1.77;;;13.20;99.90;;;;;;5218175;28;20104;-76
2022/10/03 07:12:17;;;;;;;2.60;1.08;;;13.30;99.90;;;;;;5217066;28;20032;-75
2022/10/03 07:15:00;;;;;;;3.47;1.73;;;13.30;99.90;;;;;;5214639;28;20033;-74
2022/10/03 07:17:57;;;;;;;4.53;1.38;;;13.50;99.90;;;;;;5198173;28;20028;-75
2022/10/03 07:20:43;;;;;;;3.35;1.38;;;13.60;99.90;;;;;;5197240;28;20021;-75
2022/10/03 07:23:55;;;;;;;6.75;1.80;;;13.70;99.90;;;;;;5193519;28;20048;-75
2022/10/03 07:26:54;;;;;;;2.95;1.10;;;13.90;99.90;;;;;;5196753;28;20028;-75
2022/10/03 07:29:44;;;;;;;2.28;1.45;;;13.90;99.90;;;;;;5215012;28;20031;-75
2022/10/03 07:32:39;;;;;;;3.88;1.88;;;13.90;99.90;;;;;;5213559;28;20037;-75
2022/10/03 07:35:11;;;;;;;;;;;13.90;99.90;;;;;;5214134;28;20470;-75
2022/10/03 07:41:03;;;;;;;1.77;1.35;;;13.50;99.90;;;;;;5212653;28;20035;-74
2022/10/03 07:43:56;;;;;;;1.55;1.10;;;13.50;99.90;;;;;;5216472;28;20039;-74
2022/10/03 07:46:49;;;;;;;4.13;1.75;;;13.60;99.90;;;;;;5215843;28;20017;-76
2022/10/03 07:49:32;;;;;;;3.13;1.17;;;13.70;99.90;;;;;;5215512;28;20463;-75
2022/10/03 07:52:24;;;;;;;2.35;1.30;;;14.00;99.90;;;;;;5216814;28;20384;-75
2022/10/03 07:55:01;;;;;;;2.75;1.13;;;14.00;99.90;;;;;;5198698;28;20012;-75
2022/10/03 07:58:00;;;;;;;6.65;1.58;;;14.00;99.90;;;;;;5216305;28;20025;-74
2022/10/03 08:01:00;;;;;;;1.73;1.25;;;14.00;99.90;;;;;;5218441;28;20113;-74
2022/10/03 08:03:57;;;;;;;2.30;1.38;;;14.10;99.90;;;;;;5195827;28;20017;-75
2022/10/03 08:06:46;;;;;;;1.45;1.35;;;14.20;99.90;;;;;;5184351;28;20051;-75
2022/10/03 08:09:20;;;;;;;4.57;1.60;;;14.10;99.90;;;;;;5181306;28;20029;-76
2022/10/03 08:12:28;;;;;;;2.25;1.30;;;14.20;99.90;;;;;;5198520;28;20041;-76
2022/10/03 08:15:10;;;;;;;2.60;1.27;;;14.20;99.90;;;;;;5197889;28;20029;-75
2022/10/03 08:18:16;;;;;;;1.85;1.20;;;14.20;99.90;;;;;;5212831;28;20021;-75
2022/10/03 08:20:54;;;;;;;7.00;2.38;;;14.40;99.90;;;;;;5215840;28;20025;-75
2022/10/03 08:23:39;;;;;;;1.83;1.60;;;14.50;99.90;;;;;;5211013;28;20024;-76
2022/10/03 08:26:51;;;;;;;4.30;1.20;;;14.50;99.90;;;;;;5196800;28;20033;-77
2022/10/03 08:29:51;;;;;;;7.22;1.75;;;14.50;99.90;;;;;;5215644;28;20023;-77
2022/10/03 08:32:37;;;;;;;6.28;3.50;;;14.50;99.90;;;;;;5216739;28;20028;-77
2022/10/03 08:35:24;;;;;;;4.18;1.30;;;14.50;99.90;;;;;;5214116;28;20035;-77
2022/10/03 08:38:14;;;;;;;1.85;1.30;;;14.50;99.90;;;;;;5215753;28;20429;-77
2022/10/03 08:40:55;;;;;;;3.92;2.28;;;14.70;99.90;;;;;;5195486;28;20039;-77
2022/10/03 08:44:11;;;;;;;4.53;1.85;;;14.80;99.90;;;;;;5194208;28;20025;-76
2022/10/03 08:47:00;;;;;;;1.70;1.48;;;14.70;99.90;;;;;;5188533;28;20020;-76
2022/10/03 08:49:50;;;;;;;1.60;1.38;;;15.00;99.90;;;;;;5197097;28;20020;-76
2022/10/03 08:52:24;;;;;;;2.30;1.38;;;14.90;99.90;;;;;;5196521;28;20043;-77
2022/10/03 08:55:54;;;;;;;1.58;1.48;;;15.20;99.90;;;;;;5196022;28;20367;-77
2022/10/03 08:58:46;;;;;;;4.40;1.90;;;15.50;99.90;;;;;;5093397;29;20490;-76
2022/10/03 09:01:26;;;;;;;2.72;2.08;;;15.30;99.90;;;;;;5092976;28;20041;-76
2022/10/03 09:04:18;;;;;;;2.03;1.48;;;15.40;99.90;;;;;;5115140;28;20019;-76
2022/10/03 09:06:49;;;;;;;3.47;1.40;;;15.10;99.90;;;;;;5082515;29;20051;-76
2022/10/03 09:09:54;;;;;;;5.38;2.00;;;15.20;99.90;;;;;;5115738;28;20019;-76
2022/10/03 09:12:44;;;;;;;2.30;2.10;;;14.80;99.90;;;;;;5113725;29;20062;-76
2022/10/03 09:15:17;;;;;;;1.70;1.35;;;14.60;99.90;;;;;;5098602;29;20027;-76
2022/10/03 09:17:54;;;;;;;3.30;2.00;;;14.60;99.90;;;;;;5096397;29;20027;-76
2022/10/03 09:21:07;;;;;;;3.13;1.90;;;14.40;99.90;;;;;;5099570;29;20043;-76
2022/10/03 09:24:14;;;;;;;7.20;1.45;;;14.40;99.90;;;;;;5098588;29;20046;-77
2022/10/03 09:27:14;;;;;;;6.18;1.75;;;14.40;99.90;;;;;;5098306;28;20449;-76
2022/10/03 09:30:05;;;;;;;4.40;2.75;;;14.20;99.90;;;;;;5113671;29;20027;-76
2022/10/03 09:32:58;;;;;;;2.05;1.38;;;14.10;99.90;;;;;;5120553;28;20078;-76
2022/10/03 09:35:54;;;;;;;1.63;1.52;;;13.90;99.90;;;;;;5219955;28;20021;-76
2022/10/03 09:38:44;;;;;;;3.78;1.50;;;14.00;99.90;;;;;;5220666;28;20618;-77
2022/10/03 09:41:37;;;;;;;4.38;1.60;;;13.90;99.90;;;;;;5237825;28;20036;-76
2022/10/03 09:44:40;;;;;;;4.78;1.58;;;14.00;99.90;;;;;;5204895;28;20033;-76
2022/10/03 09:47:27;;;;;;;3.33;1.60;;;14.00;99.90;;;;;;5202058;28;20047;-75
2022/10/03 09:50:35;;;;;;;5.40;1.55;;;13.90;99.90;;;;;;5217342;28;20036;-75
2022/10/03 09:53:37;;;;;;;3.92;1.65;;;13.90;99.90;;;;;;5213054;28;20017;-75
2022/10/03 09:56:14;;;;;;;1.50;1.38;;;14.00;99.90;;;;;;5212652;28;20045;-75
2022/10/03 09:59:08;;;;;;;2.15;1.10;;;14.00;99.90;;;;;;5218116;28;20029;-75
2022/10/03 10:02:01;;;;;;;3.47;1.30;;;14.10;99.90;;;;;;5201570;28;20047;-76
2022/10/03 10:04:47;;;;;;;1.35;1.10;;;14.10;99.90;;;;;;5226232;28;20040;-75
2022/10/03 10:07:40;;;;;;;2.83;1.15;;;14.20;99.90;;;;;;5202072;28;20033;-75
2022/10/03 10:10:25;;;;;;;3.42;1.20;;;14.20;99.90;;;;;;5220129;28;20339;-75
2022/10/03 10:13:27;;;;;;;3.35;1.30;;;14.20;99.90;;;;;;5218561;28;20038;-75
2022/10/03 10:16:13;;;;;;;3.28;1.60;;;14.20;99.90;;;;;;5220381;28;20017;-75
2022/10/03 10:19:15;;;;;;;4.57;1.58;;;14.30;99.90;;;;;;5218539;28;20359;-76
2022/10/03 10:22:18;;;;;;;3.67;1.50;;;14.50;99.90;;;;;;5210172;28;20041;-76
2022/10/03 10:25:10;;;;;;;1.45;1.30;;;14.70;99.90;;;;;;5212380;28;20032;-75
2022/10/03 10:27:47;;;;;;;2.13;1.30;;;15.00;99.90;;;;;;5218240;28;20033;-75
2022/10/03 10:30:50;;;;;;;1.20;1.05;;;15.80;99.90;;;;;;5218465;28;20370;-77
2022/10/03 10:33:46;;;;;;;5.18;1.40;;;16.40;99.90;;;;;;5228135;28;20031;-76
2022/10/03 10:36:41;;;;;;;2.53;1.42;;;16.50;99.90;;;;;;5222484;28;20024;-76
2022/10/03 10:39:59;;;;;;;4.60;1.40;;;16.20;99.90;;;;;;5229333;28;20576;-76
2022/10/03 10:43:08;;;;;;;1.30;1.20;;;16.70;99.90;;;;;;5183548;28;20451;-76
2022/10/03 10:46:23;;;;;;;3.47;1.38;;;16.20;99.90;;;;;;5198040;28;20017;-75
2022/10/03 10:49:09;;;;;;;3.25;1.27;;;15.70;99.90;;;;;;5197085;28;20029;-77
2022/10/03 10:51:52;;;;;;;4.40;1.58;;;16.00;99.90;;;;;;5198018;28;20041;-75
2022/10/03 10:54:45;;;;;;;2.00;1.30;;;16.10;99.90;;;;;;5194907;28;20025;-76
2022/10/03 10:57:55;;;;;;;1.65;1.30;;;15.80;99.90;;;;;;5214629;28;20028;-77
2022/10/03 11:00:59;;;;;;;5.63;1.60;;;15.60;99.90;;;;;;5218225;28;20233;-75
2022/10/03 11:03:56;;;;;;;2.83;1.27;;;15.50;99.90;;;;;;5233957;28;20245;-77
2022/10/03 11:06:36;;;;;;;5.03;1.67;;;15.50;99.90;;;;;;5227574;28;20368;-75
2022/10/03 11:09:19;;;;;;;2.13;1.13;;;15.40;99.90;;;;;;5238226;28;20028;-77
2022/10/03 11:12:39;;;;;;;2.05;1.30;;;15.20;99.90;;;;;;5177932;28;20035;-76
2022/10/03 11:15:42;;;;;;;4.18;1.67;;;14.90;99.90;;;;;;5164245;28;20032;-78
2022/10/03 11:18:41;;;;;;;2.65;1.60;;;14.50;99.90;;;;;;5203618;28;20024;-75
2022/10/03 11:21:27;;;;;;;3.00;1.60;;;14.00;99.90;;;;;;5200411;28;20382;-77
2022/10/03 11:24:22;;;;;;;1.77;1.48;;;13.80;99.90;;;;;;5199667;28;20039;-77
2022/10/03 11:26:56;;;;;;;2.28;1.27;;;13.80;99.90;;;;;;5201461;28;20035;-76
2022/10/03 11:29:39;;;;;;;7.20;1.27;;;14.60;99.90;;;;;;5185927;28;20033;-75
2022/10/03 11:32:32;;;;;;;4.47;1.10;;;14.60;99.90;;;;;;5201344;28;20021;-75
2022/10/03 11:35:14;;;;;;;2.35;1.33;;;15.10;99.90;;;;;;5238531;28;20427;-75
2022/10/03 11:38:17;;;;;;;3.15;1.25;;;15.70;99.90;;;;;;5220317;28;20024;-75
2022/10/03 11:41:01;;;;;;;4.03;1.33;;;16.90;99.90;;;;;;5192089;28;20037;-75
2022/10/03 11:44:03;;;;;;;2.00;1.20;;;16.80;99.90;;;;;;5207442;28;20024;-74
2022/10/03 11:47:22;;;;;;;2.40;1.65;;;16.20;99.90;;;;;;5202789;28;21362;-75
2022/10/03 11:50:26;;;;;;;8.57;1.95;;;15.50;99.90;;;;;;5135826;28;20030;-75
2022/10/03 11:53:18;;;;;;;4.25;1.30;;;15.20;99.90;;;;;;5196187;28;20044;-75
2022/10/03 11:56:18;;;;;;;5.00;1.88;;;15.00;99.90;;;;;;5181497;28;20059;-77
2022/10/03 11:59:05;;;;;;;1.73;1.60;;;14.20;99.90;;;;;;5197364;28;20552;-77
2022/10/03 12:02:11;;;;;;;2.17;1.40;;;13.50;99.90;;;;;;5180858;28;20475;-77
2022/10/03 12:05:06;;;;;;;1.90;1.27;;;13.40;99.90;;;;;;5225282;28;20044;-75
2022/10/03 12:10:59;;;;;;;1.95;1.38;;;13.90;99.90;;;;;;5209830;28;20039;-77
2022/10/03 12:13:42;;;;;;;4.60;1.30;;;13.80;99.90;;;;;;5216894;28;20037;-77
2022/10/03 12:16:30;;;;;;;0.68;0.68;;;13.90;99.90;;;;;;5216988;28;20025;-77
2022/10/03 12:19:19;;;;;;;1.38;0.90;;;15.60;99.90;;;;;;5199221;28;20037;-75
2022/10/03 12:21:56;;;;;;;3.22;0.82;;;16.40;99.90;;;;;;5216541;28;20371;-74
2022/10/03 12:24:31;;;;;;;1.10;1.00;;;16.80;99.90;;;;;;5214754;28;20237;-75
2022/10/03 12:27:16;;;;;;;;;;;16.90;99.90;;;;;;5198551;28;20428;-75
2022/10/03 12:29:58;;;;;;;1.63;1.00;;;16.00;99.90;;;;;;5182749;28;19908;-75
2022/10/03 12:32:50;;;;;;;1.48;0.80;;;15.30;99.90;;;;;;5219527;28;20032;-75
2022/10/03 12:35:37;;;;;;;0.82;0.77;;;15.60;99.90;;;;;;5224002;28;20046;-76
2022/10/03 12:38:18;;;;;;;1.48;0.95;;;16.40;99.90;;;;;;5225893;28;20017;-76
2022/10/03 12:41:17;;;;;;;5.43;1.60;;;15.80;99.90;;;;;;5189199;28;20040;-75
2022/10/03 12:43:56;;;;;;;1.25;1.00;;;16.20;99.90;;;;;;5222427;28;20027;-76
2022/10/03 12:46:51;;;;;;;1.35;0.90;;;16.80;99.90;;;;;;5213526;28;20031;-74
2022/10/03 12:49:34;;;;;;;1.08;0.80;;;16.60;99.90;;;;;;5216723;28;20029;-76
2022/10/03 12:52:19;;;;;;;0.90;0.90;;;16.50;99.90;;;;;;5185240;28;20037;-77
2022/10/03 12:55:15;;;;;;;1.38;0.90;;;17.40;99.90;;;;;;5220840;28;20727;-75
2022/10/03 12:58:39;;;;;;;0.90;0.90;;;17.30;99.90;;;;;;5200086;28;20039;-75
2022/10/03 13:01:40;;;;;;;2.47;0.82;;;17.50;99.90;;;;;;5219119;28;20360;-74
2022/10/03 13:04:53;;;;;;;1.70;0.70;;;17.50;99.90;;;;;;5208077;28;20035;-74
2022/10/03 13:07:51;;;;;;;2.83;1.13;;;17.30;99.90;;;;;;5205746;28;20037;-75
2022/10/03 13:10:44;;;;;;;0.88;0.85;;;16.40;99.90;;;;;;5215561;28;20382;-75
2022/10/03 13:13:44;;;;;;;1.88;1.02;;;16.90;99.90;;;;;;5189106;28;20083;-76
2022/10/03 13:16:24;;;;;;;1.15;0.80;;;17.80;99.90;;;;;;5114171;28;20039;-75
2022/10/03 13:19:06;;;;;;;1.95;0.80;;;16.50;99.90;;;;;;5116082;29;20028;-74
2022/10/03 13:21:53;;;;;;;1.30;0.80;;;16.40;99.90;;;;;;5099916;29;20437;-74
2022/10/03 13:24:24;;;;;;;2.17;1.25;;;16.80;99.90;;;;;;5102846;29;20027;-75
2022/10/03 13:27:01;;;;;;;0.90;0.90;;;16.30;99.90;;;;;;5082516;29;20282;-75
2022/10/03 13:29:43;;;;;;;1.75;1.05;;;16.40;99.90;;;;;;5105645;29;20027;-75
2022/10/03 13:32:37;;;;;;;1.35;1.17;;;16.10;99.90;;;;;;5097404;28;20577;-75
2022/10/03 13:38:37;;;;;;;1.08;0.70;;;17.00;99.90;;;;;;5112441;28;20019;-75
2022/10/03 13:41:16;;;;;;;0.75;0.75;;;17.10;99.90;;;;;;5114997;28;20037;-75
2022/10/03 13:44:27;;;;;;;1.35;0.82;;;17.40;99.90;;;;;;5113472;28;20537;-75
2022/10/03 13:47:25;;;;;;;0.90;0.70;;;16.90;99.90;;;;;;5077789;29;20041;-75
2022/10/03 13:50:14;;;;;;;1.73;1.02;;;16.50;99.90;;;;;;5109173;29;20020;-74
2022/10/03 13:53:00;;;;;;;1.13;1.00;;;16.30;99.90;;;;;;5148416;28;20420;-75
2022/10/03 13:55:43;;;;;;;0.80;0.80;;;15.70;99.90;;;;;;5216154;28;20032;-74
2022/10/03 13:58:42;;;;;;;1.00;0.90;;;15.40;99.90;;;;;;5198889;28;20019;-74
2022/10/03 14:01:34;;;;;;;0.98;0.98;;;15.20;99.90;;;;;;5217264;28;20075;-74
2022/10/03 14:04:17;;;;;;;1.80;1.20;;;16.00;99.90;;;;;;5198983;28;20021;-75
2022/10/03 14:06:54;;;;;;;1.02;0.90;;;15.70;99.90;;;;;;5168974;28;20057;-74
2022/10/03 14:09:53;;;;;;;0.98;0.98;;;15.60;99.90;;;;;;5196326;28;20031;-75
2022/10/03 14:13:02;;;;;;;1.90;1.00;;;15.30;99.90;;;;;;5199035;28;20471;-75
2022/10/03 14:15:33;;;;;;;4.38;1.10;;;15.50;99.90;;;;;;5198221;28;20025;-75
2022/10/03 14:18:23;;;;;;;0.77;0.77;;;14.70;99.90;;;;;;5196519;28;20039;-76
2022/10/03 14:21:13;;;;;;;3.78;1.13;;;13.80;99.90;;;;;;5197919;28;20099;-75
2022/10/03 14:24:29;;;;;;;1.42;0.90;;;13.30;99.90;;;;;;5216241;28;20031;-77
2022/10/03 14:27:21;;;;;;;2.40;1.13;;;13.20;99.90;;;;;;5215645;28;20028;-75
2022/10/03 14:30:21;;;;;;;2.10;1.20;;;12.70;99.90;;;;;;5213905;28;20035;-75
2022/10/03 14:33:40;;;;;;;1.33;1.23;;;12.50;99.90;;;;;;5215112;28;20037;-77
2022/10/03 14:36:46;;;;;;;1.63;1.25;;;12.40;99.90;;;;;;5215878;28;20020;-77
2022/10/03 14:39:34;;;;;;;1.73;1.15;;;13.30;99.90;;;;;;5215100;28;20021;-77
2022/10/03 14:42:11;;;;;;;1.88;1.00;;;14.70;99.90;;;;;;5198513;28;20032;-77
2022/10/03 14:44:55;;;;;;;1.10;1.00;;;15.70;99.90;;;;;;5182104;28;20035;-77
2022/10/03 14:47:35;;;;;;;1.35;1.25;;;16.50;99.90;;;;;;5197080;28;20021;-77
2022/10/03 14:50:17;;;;;;;1.00;1.00;;;16.50;99.90;;;;;;5214635;28;20039;-75
2022/10/03 14:53:00;;;;;;;1.20;1.10;;;16.40;99.90;;;;;;5215705;28;20035;-77
2022/10/03 14:55:43;;;;;;;3.13;1.40;;;16.00;99.90;;;;;;5212101;28;20029;-76
2022/10/03 14:58:34;;;;;;;2.85;1.60;;;15.40;99.90;;;;;;5218718;28;20307;-77
2022/10/03 15:01:19;;;;;;;3.08;1.42;;;13.90;99.90;;;;;;5218362;28;20031;-77
2022/10/03 15:04:24;;;;;;;2.15;1.40;;;12.60;99.90;;;;;;5203869;28;20039;-77
2022/10/03 15:07:07;;;;;;;2.95;1.95;;;12.20;99.90;;;;;;5190790;28;20079;-77
2022/10/03 15:09:49;;;;;;;2.95;2.03;;;12.20;99.90;;;;;;5217254;28;20021;-78
2022/10/03 15:12:31;;;;;;;2.88;1.45;;;12.20;99.90;;;;;;5202313;28;20033;-77
2022/10/03 15:15:14;;;;;;;5.55;1.70;;;12.30;99.90;;;;;;5213370;28;20196;-77